sensor_id;sensor_type;location;lat;lon;timestamp;temperature;humidity
76567;DHT22;65428;53.194;6.132;2022-12-26T00:01:49;9.00;95.80
76567;DHT22;65428;53.194;6.132;2022-12-26T00:04:15;9.00;96.10
76567;DHT22;65428;53.194;6.132;2022-12-26T00:06:41;9.00;95.80
76567;DHT22;65428;53.194;6.132;2022-12-26T00:09:07;9.10;95.80
76567;DHT22;65428;53.194;6.132;2022-12-26T00:11:33;9.00;95.80
76567;DHT22;65428;53.194;6.132;2022-12-26T00:14:03;9.00;95.90
76567;DHT22;65428;53.194;6.132;2022-12-26T00:16:30;9.00;95.80
76567;DHT22;65428;53.194;6.132;2022-12-26T00:18:55;9.00;95.90
76567;DHT22;65428;53.194;6.132;2022-12-26T00:21:21;9.00;95.90
76567;DHT22;65428;53.194;6.132;2022-12-26T00:23:50;9.00;95.90
76567;DHT22;65428;53.194;6.132;2022-12-26T00:26:18;9.00;95.90
76567;DHT22;65428;53.194;6.132;2022-12-26T00:28:44;9.00;95.80
76567;DHT22;65428;53.194;6.132;2022-12-26T00:31:13;9.00;95.80
76567;DHT22;65428;53.194;6.132;2022-12-26T00:33:39;9.00;95.80
76567;DHT22;65428;53.194;6.132;2022-12-26T00:36:10;9.00;95.90
76567;DHT22;65428;53.194;6.132;2022-12-26T00:38:38;9.00;95.90
76567;DHT22;65428;53.194;6.132;2022-12-26T00:41:05;9.00;95.90
76567;DHT22;65428;53.194;6.132;2022-12-26T00:43:32;9.50;96.10
76567;DHT22;65428;53.194;6.132;2022-12-26T00:45:59;9.00;95.90
76567;DHT22;65428;53.194;6.132;2022-12-26T00:48:25;9.00;95.90
76567;DHT22;65428;53.194;6.132;2022-12-26T00:50:50;9.00;95.90
76567;DHT22;65428;53.194;6.132;2022-12-26T00:53:16;9.00;95.90
76567;DHT22;65428;53.194;6.132;2022-12-26T00:55:42;9.00;95.90
76567;DHT22;65428;53.194;6.132;2022-12-26T00:58:08;9.00;95.90
76567;DHT22;65428;53.194;6.132;2022-12-26T01:00:34;9.10;95.90
76567;DHT22;65428;53.194;6.132;2022-12-26T01:03:00;9.00;95.90
76567;DHT22;65428;53.194;6.132;2022-12-26T01:05:26;9.10;95.90
76567;DHT22;65428;53.194;6.132;2022-12-26T01:07:51;9.00;95.80
76567;DHT22;65428;53.194;6.132;2022-12-26T01:10:17;9.00;95.80
76567;DHT22;65428;53.194;6.132;2022-12-26T01:12:43;9.00;95.90
76567;DHT22;65428;53.194;6.132;2022-12-26T01:15:09;9.00;95.90
76567;DHT22;65428;53.194;6.132;2022-12-26T01:17:34;9.00;95.90
76567;DHT22;65428;53.194;6.132;2022-12-26T01:20:00;9.00;95.90
76567;DHT22;65428;53.194;6.132;2022-12-26T01:22:26;9.00;96.00
76567;DHT22;65428;53.194;6.132;2022-12-26T01:24:53;9.00;96.00
76567;DHT22;65428;53.194;6.132;2022-12-26T01:27:19;9.00;96.00
76567;DHT22;65428;53.194;6.132;2022-12-26T01:29:44;9.00;96.00
76567;DHT22;65428;53.194;6.132;2022-12-26T01:32:10;9.00;96.00
76567;DHT22;65428;53.194;6.132;2022-12-26T01:34:36;9.00;96.00
76567;DHT22;65428;53.194;6.132;2022-12-26T01:37:01;9.00;96.10
76567;DHT22;65428;53.194;6.132;2022-12-26T01:39:27;9.00;96.10
76567;DHT22;65428;53.194;6.132;2022-12-26T01:41:52;9.00;96.10
76567;DHT22;65428;53.194;6.132;2022-12-26T01:47:23;9.00;96.20
76567;DHT22;65428;53.194;6.132;2022-12-26T01:49:52;9.00;96.20
76567;DHT22;65428;53.194;6.132;2022-12-26T01:52:44;9.00;96.20
76567;DHT22;65428;53.194;6.132;2022-12-26T01:55:14;9.00;96.20
76567;DHT22;65428;53.194;6.132;2022-12-26T01:57:43;9.00;96.20
76567;DHT22;65428;53.194;6.132;2022-12-26T02:00:10;9.00;96.20
76567;DHT22;65428;53.194;6.132;2022-12-26T02:02:36;9.00;96.20
76567;DHT22;65428;53.194;6.132;2022-12-26T02:05:24;9.00;96.20
76567;DHT22;65428;53.194;6.132;2022-12-26T02:08:13;9.00;96.20
76567;DHT22;65428;53.194;6.132;2022-12-26T02:10:50;9.00;96.30
76567;DHT22;65428;53.194;6.132;2022-12-26T02:13:17;9.10;96.30
76567;DHT22;65428;53.194;6.132;2022-12-26T02:15:44;9.00;96.30
76567;DHT22;65428;53.194;6.132;2022-12-26T02:18:09;9.00;96.30
76567;DHT22;65428;53.194;6.132;2022-12-26T02:31:42;9.00;96.40
76567;DHT22;65428;53.194;6.132;2022-12-26T02:37:08;9.00;96.40
76567;DHT22;65428;53.194;6.132;2022-12-26T02:39:55;9.00;96.40
76567;DHT22;65428;53.194;6.132;2022-12-26T02:45:22;9.00;96.50
76567;DHT22;65428;53.194;6.132;2022-12-26T02:48:35;9.10;96.60
76567;DHT22;65428;53.194;6.132;2022-12-26T02:54:15;9.10;96.50
76567;DHT22;65428;53.194;6.132;2022-12-26T02:57:08;9.10;96.50
76567;DHT22;65428;53.194;6.132;2022-12-26T03:00:02;9.10;96.50
76567;DHT22;65428;53.194;6.132;2022-12-26T03:02:49;9.20;96.50
76567;DHT22;65428;53.194;6.132;2022-12-26T03:08:32;9.30;96.60
76567;DHT22;65428;53.194;6.132;2022-12-26T03:11:17;9.40;96.60
76567;DHT22;65428;53.194;6.132;2022-12-26T03:14:15;9.20;96.50
76567;DHT22;65428;53.194;6.132;2022-12-26T03:16:43;9.20;96.50
76567;DHT22;65428;53.194;6.132;2022-12-26T03:19:30;9.20;96.50
76567;DHT22;65428;53.194;6.132;2022-12-26T03:21:59;9.30;96.70
76567;DHT22;65428;53.194;6.132;2022-12-26T03:24:27;9.30;96.40
76567;DHT22;65428;53.194;6.132;2022-12-26T03:27:12;9.30;96.40
76567;DHT22;65428;53.194;6.132;2022-12-26T03:29:38;9.30;96.40
76567;DHT22;65428;53.194;6.132;2022-12-26T03:32:22;9.30;96.40
76567;DHT22;65428;53.194;6.132;2022-12-26T03:34:48;9.30;96.30
76567;DHT22;65428;53.194;6.132;2022-12-26T03:40:10;9.30;96.30
76567;DHT22;65428;53.194;6.132;2022-12-26T03:49:26;9.30;96.20
76567;DHT22;65428;53.194;6.132;2022-12-26T03:52:38;9.30;96.20
76567;DHT22;65428;53.194;6.132;2022-12-26T03:58:38;9.30;96.20
76567;DHT22;65428;53.194;6.132;2022-12-26T04:01:26;9.30;96.20
76567;DHT22;65428;53.194;6.132;2022-12-26T04:04:14;9.30;96.20
76567;DHT22;65428;53.194;6.132;2022-12-26T04:07:09;9.40;96.20
76567;DHT22;65428;53.194;6.132;2022-12-26T04:10:08;9.30;96.10
76567;DHT22;65428;53.194;6.132;2022-12-26T04:12:55;9.40;96.00
76567;DHT22;65428;53.194;6.132;2022-12-26T04:15:48;9.30;96.10
76567;DHT22;65428;53.194;6.132;2022-12-26T04:18:39;9.30;96.00
76567;DHT22;65428;53.194;6.132;2022-12-26T04:21:59;9.30;95.90
76567;DHT22;65428;53.194;6.132;2022-12-26T04:24:56;9.30;95.90
76567;DHT22;65428;53.194;6.132;2022-12-26T04:27:46;9.30;95.90
76567;DHT22;65428;53.194;6.132;2022-12-26T04:30:33;9.30;96.00
76567;DHT22;65428;53.194;6.132;2022-12-26T04:33:24;9.30;95.90
76567;DHT22;65428;53.194;6.132;2022-12-26T04:36:15;9.30;95.90
76567;DHT22;65428;53.194;6.132;2022-12-26T04:39:03;9.30;95.80
76567;DHT22;65428;53.194;6.132;2022-12-26T04:41:50;9.30;95.90
76567;DHT22;65428;53.194;6.132;2022-12-26T04:44:36;9.30;95.80
76567;DHT22;65428;53.194;6.132;2022-12-26T04:47:02;9.30;95.80
76567;DHT22;65428;53.194;6.132;2022-12-26T04:49:28;9.30;95.80
76567;DHT22;65428;53.194;6.132;2022-12-26T04:52:13;9.30;95.80
76567;DHT22;65428;53.194;6.132;2022-12-26T04:54:39;9.30;95.70
76567;DHT22;65428;53.194;6.132;2022-12-26T04:57:06;9.30;95.70
76567;DHT22;65428;53.194;6.132;2022-12-26T04:59:32;9.30;95.70
76567;DHT22;65428;53.194;6.132;2022-12-26T05:01:58;9.20;95.60
76567;DHT22;65428;53.194;6.132;2022-12-26T05:04:42;9.30;95.60
76567;DHT22;65428;53.194;6.132;2022-12-26T05:07:29;9.30;95.50
76567;DHT22;65428;53.194;6.132;2022-12-26T05:10:22;9.40;95.50
76567;DHT22;65428;53.194;6.132;2022-12-26T05:12:48;9.30;95.50
76567;DHT22;65428;53.194;6.132;2022-12-26T05:15:14;9.20;95.70
76567;DHT22;65428;53.194;6.132;2022-12-26T05:17:40;9.20;95.40
76567;DHT22;65428;53.194;6.132;2022-12-26T05:20:24;9.10;95.30
76567;DHT22;65428;53.194;6.132;2022-12-26T05:23:21;9.20;95.30
76567;DHT22;65428;53.194;6.132;2022-12-26T05:26:17;9.20;95.30
76567;DHT22;65428;53.194;6.132;2022-12-26T05:29:03;9.20;95.20
76567;DHT22;65428;53.194;6.132;2022-12-26T05:31:29;9.10;95.30
76567;DHT22;65428;53.194;6.132;2022-12-26T05:33:55;9.10;95.30
76567;DHT22;65428;53.194;6.132;2022-12-26T05:36:47;9.10;95.20
76567;DHT22;65428;53.194;6.132;2022-12-26T05:39:14;9.10;95.20
76567;DHT22;65428;53.194;6.132;2022-12-26T05:41:40;9.30;95.30
76567;DHT22;65428;53.194;6.132;2022-12-26T05:44:06;9.10;95.30
76567;DHT22;65428;53.194;6.132;2022-12-26T05:46:33;9.10;95.40
76567;DHT22;65428;53.194;6.132;2022-12-26T05:48:59;9.10;95.40
76567;DHT22;65428;53.194;6.132;2022-12-26T05:51:24;9.10;95.40
76567;DHT22;65428;53.194;6.132;2022-12-26T05:53:50;9.10;95.30
76567;DHT22;65428;53.194;6.132;2022-12-26T05:56:17;9.10;95.20
76567;DHT22;65428;53.194;6.132;2022-12-26T05:58:44;9.10;95.20
76567;DHT22;65428;53.194;6.132;2022-12-26T06:01:18;9.10;95.20
76567;DHT22;65428;53.194;6.132;2022-12-26T06:03:49;9.10;95.20
76567;DHT22;65428;53.194;6.132;2022-12-26T06:06:15;9.10;95.10
76567;DHT22;65428;53.194;6.132;2022-12-26T06:08:41;9.10;95.20
76567;DHT22;65428;53.194;6.132;2022-12-26T06:11:11;9.20;95.20
76567;DHT22;65428;53.194;6.132;2022-12-26T06:13:38;9.20;95.10
76567;DHT22;65428;53.194;6.132;2022-12-26T06:16:10;9.20;95.30
76567;DHT22;65428;53.194;6.132;2022-12-26T06:18:36;9.20;95.10
76567;DHT22;65428;53.194;6.132;2022-12-26T06:21:09;9.20;95.10
76567;DHT22;65428;53.194;6.132;2022-12-26T06:23:36;9.20;95.00
76567;DHT22;65428;53.194;6.132;2022-12-26T06:26:03;9.20;95.00
76567;DHT22;65428;53.194;6.132;2022-12-26T06:28:28;9.30;95.00
76567;DHT22;65428;53.194;6.132;2022-12-26T06:31:01;9.30;95.00
76567;DHT22;65428;53.194;6.132;2022-12-26T06:33:27;9.30;94.90
76567;DHT22;65428;53.194;6.132;2022-12-26T06:35:53;9.30;94.90
76567;DHT22;65428;53.194;6.132;2022-12-26T06:38:18;9.30;94.80
76567;DHT22;65428;53.194;6.132;2022-12-26T06:40:44;9.30;94.80
76567;DHT22;65428;53.194;6.132;2022-12-26T06:43:10;9.30;94.80
76567;DHT22;65428;53.194;6.132;2022-12-26T06:45:35;9.30;94.70
76567;DHT22;65428;53.194;6.132;2022-12-26T06:48:01;9.30;94.80
76567;DHT22;65428;53.194;6.132;2022-12-26T06:50:27;9.30;94.70
76567;DHT22;65428;53.194;6.132;2022-12-26T06:52:52;9.50;94.60
76567;DHT22;65428;53.194;6.132;2022-12-26T06:55:18;9.40;94.60
76567;DHT22;65428;53.194;6.132;2022-12-26T06:57:44;9.50;94.60
76567;DHT22;65428;53.194;6.132;2022-12-26T07:00:10;9.30;94.60
76567;DHT22;65428;53.194;6.132;2022-12-26T07:02:36;9.30;94.60
76567;DHT22;65428;53.194;6.132;2022-12-26T07:05:02;9.30;94.50
76567;DHT22;65428;53.194;6.132;2022-12-26T07:07:28;9.30;94.60
76567;DHT22;65428;53.194;6.132;2022-12-26T07:09:53;9.20;94.30
76567;DHT22;65428;53.194;6.132;2022-12-26T07:12:19;9.20;94.40
76567;DHT22;65428;53.194;6.132;2022-12-26T07:14:46;9.20;94.30
76567;DHT22;65428;53.194;6.132;2022-12-26T07:17:12;9.20;94.20
76567;DHT22;65428;53.194;6.132;2022-12-26T07:19:38;9.20;94.30
76567;DHT22;65428;53.194;6.132;2022-12-26T07:22:03;9.20;94.30
76567;DHT22;65428;53.194;6.132;2022-12-26T07:24:29;9.10;94.30
76567;DHT22;65428;53.194;6.132;2022-12-26T07:26:55;9.10;94.20
76567;DHT22;65428;53.194;6.132;2022-12-26T07:29:20;9.00;94.20
76567;DHT22;65428;53.194;6.132;2022-12-26T07:31:47;9.00;94.30
76567;DHT22;65428;53.194;6.132;2022-12-26T07:34:13;8.90;94.30
76567;DHT22;65428;53.194;6.132;2022-12-26T07:36:39;8.90;94.30
76567;DHT22;65428;53.194;6.132;2022-12-26T07:39:05;8.80;94.60
76567;DHT22;65428;53.194;6.132;2022-12-26T07:41:31;8.80;94.40
76567;DHT22;65428;53.194;6.132;2022-12-26T07:44:15;8.80;94.40
76567;DHT22;65428;53.194;6.132;2022-12-26T07:46:41;8.80;94.40
76567;DHT22;65428;53.194;6.132;2022-12-26T07:49:07;8.80;94.40
76567;DHT22;65428;53.194;6.132;2022-12-26T07:51:35;8.70;94.40
76567;DHT22;65428;53.194;6.132;2022-12-26T07:54:00;8.80;94.40
76567;DHT22;65428;53.194;6.132;2022-12-26T07:56:26;8.80;94.50
76567;DHT22;65428;53.194;6.132;2022-12-26T07:58:52;8.80;94.50
76567;DHT22;65428;53.194;6.132;2022-12-26T08:01:18;8.90;94.50
76567;DHT22;65428;53.194;6.132;2022-12-26T08:03:43;8.80;94.40
76567;DHT22;65428;53.194;6.132;2022-12-26T08:06:10;8.90;94.40
76567;DHT22;65428;53.194;6.132;2022-12-26T08:08:36;8.90;94.40
76567;DHT22;65428;53.194;6.132;2022-12-26T08:11:04;9.10;94.40
76567;DHT22;65428;53.194;6.132;2022-12-26T08:13:30;8.90;94.40
76567;DHT22;65428;53.194;6.132;2022-12-26T08:15:56;9.00;94.40
76567;DHT22;65428;53.194;6.132;2022-12-26T08:18:23;9.00;94.30
76567;DHT22;65428;53.194;6.132;2022-12-26T08:20:49;9.10;94.40
76567;DHT22;65428;53.194;6.132;2022-12-26T08:23:15;9.10;94.40
76567;DHT22;65428;53.194;6.132;2022-12-26T08:25:41;8.90;94.40
76567;DHT22;65428;53.194;6.132;2022-12-26T08:28:07;9.10;94.50
76567;DHT22;65428;53.194;6.132;2022-12-26T08:30:32;9.20;94.40
76567;DHT22;65428;53.194;6.132;2022-12-26T08:32:58;9.20;94.40
76567;DHT22;65428;53.194;6.132;2022-12-26T08:35:24;9.20;94.50
76567;DHT22;65428;53.194;6.132;2022-12-26T08:37:50;9.20;94.50
76567;DHT22;65428;53.194;6.132;2022-12-26T08:40:16;9.30;94.50
76567;DHT22;65428;53.194;6.132;2022-12-26T08:42:41;9.20;94.50
76567;DHT22;65428;53.194;6.132;2022-12-26T08:45:07;9.20;94.70
76567;DHT22;65428;53.194;6.132;2022-12-26T08:47:33;9.10;94.80
76567;DHT22;65428;53.194;6.132;2022-12-26T08:49:58;9.10;94.90
76567;DHT22;65428;53.194;6.132;2022-12-26T08:52:24;9.20;95.10
76567;DHT22;65428;53.194;6.132;2022-12-26T08:54:50;9.10;95.10
76567;DHT22;65428;53.194;6.132;2022-12-26T08:57:15;9.10;95.00
76567;DHT22;65428;53.194;6.132;2022-12-26T08:59:41;9.20;95.10
76567;DHT22;65428;53.194;6.132;2022-12-26T09:02:10;9.20;95.10
76567;DHT22;65428;53.194;6.132;2022-12-26T09:04:35;9.20;95.30
76567;DHT22;65428;53.194;6.132;2022-12-26T09:07:02;9.20;95.20
76567;DHT22;65428;53.194;6.132;2022-12-26T09:09:27;9.20;95.20
76567;DHT22;65428;53.194;6.132;2022-12-26T09:11:53;9.10;95.20
76567;DHT22;65428;53.194;6.132;2022-12-26T09:14:19;9.20;95.50
76567;DHT22;65428;53.194;6.132;2022-12-26T09:16:45;9.20;95.30
76567;DHT22;65428;53.194;6.132;2022-12-26T09:19:12;9.10;95.20
76567;DHT22;65428;53.194;6.132;2022-12-26T09:21:39;9.30;95.30
76567;DHT22;65428;53.194;6.132;2022-12-26T09:24:08;9.10;95.10
76567;DHT22;65428;53.194;6.132;2022-12-26T09:26:35;9.10;94.80
76567;DHT22;65428;53.194;6.132;2022-12-26T09:29:01;9.00;94.90
76567;DHT22;65428;53.194;6.132;2022-12-26T09:31:30;9.00;94.20
76567;DHT22;65428;53.194;6.132;2022-12-26T09:33:55;8.80;92.90
76567;DHT22;65428;53.194;6.132;2022-12-26T09:36:27;8.60;92.30
76567;DHT22;65428;53.194;6.132;2022-12-26T09:38:55;8.50;92.40
76567;DHT22;65428;53.194;6.132;2022-12-26T09:44:06;8.40;92.40
76567;DHT22;65428;53.194;6.132;2022-12-26T09:52:22;8.10;92.10
76567;DHT22;65428;53.194;6.132;2022-12-26T09:54:57;8.10;91.90
76567;DHT22;65428;53.194;6.132;2022-12-26T09:57:40;8.10;92.00
76567;DHT22;65428;53.194;6.132;2022-12-26T10:00:10;8.10;91.90
76567;DHT22;65428;53.194;6.132;2022-12-26T10:02:41;8.10;91.80
76567;DHT22;65428;53.194;6.132;2022-12-26T10:05:11;8.00;91.90
76567;DHT22;65428;53.194;6.132;2022-12-26T10:07:49;7.90;92.00
76567;DHT22;65428;53.194;6.132;2022-12-26T10:10:38;8.00;92.20
76567;DHT22;65428;53.194;6.132;2022-12-26T10:13:20;8.00;92.50
76567;DHT22;65428;53.194;6.132;2022-12-26T10:16:02;8.00;92.60
76567;DHT22;65428;53.194;6.132;2022-12-26T10:21:33;8.00;93.10
76567;DHT22;65428;53.194;6.132;2022-12-26T10:24:07;8.00;93.70
76567;DHT22;65428;53.194;6.132;2022-12-26T10:26:39;8.00;94.00
76567;DHT22;65428;53.194;6.132;2022-12-26T10:31:43;7.90;94.30
76567;DHT22;65428;53.194;6.132;2022-12-26T10:34:23;8.00;94.30
76567;DHT22;65428;53.194;6.132;2022-12-26T10:36:56;7.80;93.80
76567;DHT22;65428;53.194;6.132;2022-12-26T10:42:02;7.60;92.60
76567;DHT22;65428;53.194;6.132;2022-12-26T10:44:33;7.60;92.60
76567;DHT22;65428;53.194;6.132;2022-12-26T10:49:49;7.50;92.60
76567;DHT22;65428;53.194;6.132;2022-12-26T10:52:16;7.50;92.60
76567;DHT22;65428;53.194;6.132;2022-12-26T10:54:45;7.60;92.40
76567;DHT22;65428;53.194;6.132;2022-12-26T10:57:14;7.60;92.00
76567;DHT22;65428;53.194;6.132;2022-12-26T10:59:41;7.80;92.10
76567;DHT22;65428;53.194;6.132;2022-12-26T11:02:24;7.60;91.70
76567;DHT22;65428;53.194;6.132;2022-12-26T11:05:03;7.60;91.50
76567;DHT22;65428;53.194;6.132;2022-12-26T11:07:36;7.60;91.30
76567;DHT22;65428;53.194;6.132;2022-12-26T11:10:04;7.70;91.10
76567;DHT22;65428;53.194;6.132;2022-12-26T11:12:39;7.70;91.20
76567;DHT22;65428;53.194;6.132;2022-12-26T11:15:33;7.60;91.30
76567;DHT22;65428;53.194;6.132;2022-12-26T11:20:52;7.70;90.80
76567;DHT22;65428;53.194;6.132;2022-12-26T11:23:22;7.70;90.70
76567;DHT22;65428;53.194;6.132;2022-12-26T11:25:51;7.70;91.00
76567;DHT22;65428;53.194;6.132;2022-12-26T11:28:29;7.60;90.60
76567;DHT22;65428;53.194;6.132;2022-12-26T11:30:56;7.70;90.80
76567;DHT22;65428;53.194;6.132;2022-12-26T11:33:28;7.60;90.00
76567;DHT22;65428;53.194;6.132;2022-12-26T11:36:01;7.60;89.20
76567;DHT22;65428;53.194;6.132;2022-12-26T11:38:28;7.60;88.30
76567;DHT22;65428;53.194;6.132;2022-12-26T11:44:04;7.70;88.70
76567;DHT22;65428;53.194;6.132;2022-12-26T11:46:40;7.70;87.00
76567;DHT22;65428;53.194;6.132;2022-12-26T11:49:18;7.70;87.10
76567;DHT22;65428;53.194;6.132;2022-12-26T11:51:47;7.70;85.20
76567;DHT22;65428;53.194;6.132;2022-12-26T11:56:48;7.70;84.40
76567;DHT22;65428;53.194;6.132;2022-12-26T11:59:23;7.70;84.10
76567;DHT22;65428;53.194;6.132;2022-12-26T12:04:41;7.80;84.20
76567;DHT22;65428;53.194;6.132;2022-12-26T12:10:16;7.70;78.70
76567;DHT22;65428;53.194;6.132;2022-12-26T12:12:55;7.80;78.40
76567;DHT22;65428;53.194;6.132;2022-12-26T12:15:33;7.70;79.40
76567;DHT22;65428;53.194;6.132;2022-12-26T12:18:19;7.90;77.00
76567;DHT22;65428;53.194;6.132;2022-12-26T12:26:20;7.90;79.50
76567;DHT22;65428;53.194;6.132;2022-12-26T12:28:58;8.00;78.60
76567;DHT22;65428;53.194;6.132;2022-12-26T12:34:24;8.00;76.50
76567;DHT22;65428;53.194;6.132;2022-12-26T12:37:16;8.10;76.60
76567;DHT22;65428;53.194;6.132;2022-12-26T12:40:22;8.10;76.00
76567;DHT22;65428;53.194;6.132;2022-12-26T12:51:11;7.90;77.60
76567;DHT22;65428;53.194;6.132;2022-12-26T12:59:49;8.00;80.60
76567;DHT22;65428;53.194;6.132;2022-12-26T13:02:32;8.00;80.40
76567;DHT22;65428;53.194;6.132;2022-12-26T13:08:34;7.90;78.00
76567;DHT22;65428;53.194;6.132;2022-12-26T13:14:17;8.00;76.20
76567;DHT22;65428;53.194;6.132;2022-12-26T13:16:44;8.00;74.90
76567;DHT22;65428;53.194;6.132;2022-12-26T13:19:35;7.90;76.20
76567;DHT22;65428;53.194;6.132;2022-12-26T13:22:13;7.80;76.10
76567;DHT22;65428;53.194;6.132;2022-12-26T13:24:45;7.80;78.40
76567;DHT22;65428;53.194;6.132;2022-12-26T13:27:21;7.70;76.80
76567;DHT22;65428;53.194;6.132;2022-12-26T13:29:48;7.70;77.70
76567;DHT22;65428;53.194;6.132;2022-12-26T13:32:27;7.70;78.60
76567;DHT22;65428;53.194;6.132;2022-12-26T13:34:58;7.60;79.80
76567;DHT22;65428;53.194;6.132;2022-12-26T13:42:48;7.30;80.90
76567;DHT22;65428;53.194;6.132;2022-12-26T13:55:58;7.10;84.00
76567;DHT22;65428;53.194;6.132;2022-12-26T13:58:40;7.20;83.10
76567;DHT22;65428;53.194;6.132;2022-12-26T14:01:30;7.10;83.70
76567;DHT22;65428;53.194;6.132;2022-12-26T14:21:11;6.80;84.80
76567;DHT22;65428;53.194;6.132;2022-12-26T14:23:58;6.80;86.10
76567;DHT22;65428;53.194;6.132;2022-12-26T14:34:29;6.70;85.70
76567;DHT22;65428;53.194;6.132;2022-12-26T14:39:37;6.60;84.10
76567;DHT22;65428;53.194;6.132;2022-12-26T14:44:55;6.40;85.80
76567;DHT22;65428;53.194;6.132;2022-12-26T14:47:45;6.40;85.80
76567;DHT22;65428;53.194;6.132;2022-12-26T14:50:43;6.30;85.70
76567;DHT22;65428;53.194;6.132;2022-12-26T14:55:48;6.20;85.90
76567;DHT22;65428;53.194;6.132;2022-12-26T15:00:49;6.20;86.30
76567;DHT22;65428;53.194;6.132;2022-12-26T15:11:39;5.90;87.20
76567;DHT22;65428;53.194;6.132;2022-12-26T15:16:57;5.80;87.80
76567;DHT22;65428;53.194;6.132;2022-12-26T15:19:33;5.80;87.90
76567;DHT22;65428;53.194;6.132;2022-12-26T15:22:36;5.70;88.80
76567;DHT22;65428;53.194;6.132;2022-12-26T15:25:34;5.60;88.70
76567;DHT22;65428;53.194;6.132;2022-12-26T15:28:37;5.60;88.40
76567;DHT22;65428;53.194;6.132;2022-12-26T15:39:24;5.30;90.00
76567;DHT22;65428;53.194;6.132;2022-12-26T15:42:19;5.20;90.10
76567;DHT22;65428;53.194;6.132;2022-12-26T15:56:51;4.90;90.70
76567;DHT22;65428;53.194;6.132;2022-12-26T16:02:32;4.80;90.90
76567;DHT22;65428;53.194;6.132;2022-12-26T16:08:13;4.80;91.10
76567;DHT22;65428;53.194;6.132;2022-12-26T16:10:40;4.80;91.10
76567;DHT22;65428;53.194;6.132;2022-12-26T16:13:15;4.70;91.30
76567;DHT22;65428;53.194;6.132;2022-12-26T16:15:55;4.70;91.70
76567;DHT22;65428;53.194;6.132;2022-12-26T16:18:29;4.60;91.40
76567;DHT22;65428;53.194;6.132;2022-12-26T16:21:02;4.60;92.00
76567;DHT22;65428;53.194;6.132;2022-12-26T16:23:49;4.60;91.70
76567;DHT22;65428;53.194;6.132;2022-12-26T16:26:18;4.50;91.50
76567;DHT22;65428;53.194;6.132;2022-12-26T16:28:46;4.50;91.40
76567;DHT22;65428;53.194;6.132;2022-12-26T16:31:20;4.50;91.40
76567;DHT22;65428;53.194;6.132;2022-12-26T16:33:50;4.50;91.60
76567;DHT22;65428;53.194;6.132;2022-12-26T16:36:22;4.40;91.60
76567;DHT22;65428;53.194;6.132;2022-12-26T16:38:49;4.40;91.60
76567;DHT22;65428;53.194;6.132;2022-12-26T16:43:52;4.40;91.60
76567;DHT22;65428;53.194;6.132;2022-12-26T16:46:19;4.30;91.90
76567;DHT22;65428;53.194;6.132;2022-12-26T16:48:56;4.30;91.80
76567;DHT22;65428;53.194;6.132;2022-12-26T16:51:39;4.30;91.90
76567;DHT22;65428;53.194;6.132;2022-12-26T16:56:48;4.30;92.10
76567;DHT22;65428;53.194;6.132;2022-12-26T16:59:18;4.20;92.10
76567;DHT22;65428;53.194;6.132;2022-12-26T17:01:53;4.20;92.00
76567;DHT22;65428;53.194;6.132;2022-12-26T17:04:22;4.10;92.30
76567;DHT22;65428;53.194;6.132;2022-12-26T17:07:04;4.10;92.10
76567;DHT22;65428;53.194;6.132;2022-12-26T17:09:38;4.00;91.90
76567;DHT22;65428;53.194;6.132;2022-12-26T17:12:07;4.00;92.10
76567;DHT22;65428;53.194;6.132;2022-12-26T17:14:39;4.00;92.20
76567;DHT22;65428;53.194;6.132;2022-12-26T17:19:47;3.90;92.50
76567;DHT22;65428;53.194;6.132;2022-12-26T17:22:31;3.90;92.70
76567;DHT22;65428;53.194;6.132;2022-12-26T17:27:44;3.90;92.80
76567;DHT22;65428;53.194;6.132;2022-12-26T17:30:28;3.90;92.70
76567;DHT22;65428;53.194;6.132;2022-12-26T17:32:55;3.90;92.80
76567;DHT22;65428;53.194;6.132;2022-12-26T17:35:26;3.90;92.90
76567;DHT22;65428;53.194;6.132;2022-12-26T17:37:59;3.90;92.70
76567;DHT22;65428;53.194;6.132;2022-12-26T17:40:32;3.90;92.80
76567;DHT22;65428;53.194;6.132;2022-12-26T17:43:25;3.90;93.20
76567;DHT22;65428;53.194;6.132;2022-12-26T17:45:53;4.00;92.80
76567;DHT22;65428;53.194;6.132;2022-12-26T17:48:22;3.80;92.90
76567;DHT22;65428;53.194;6.132;2022-12-26T17:50:48;3.80;92.90
76567;DHT22;65428;53.194;6.132;2022-12-26T17:53:26;3.80;92.90
76567;DHT22;65428;53.194;6.132;2022-12-26T17:55:55;3.70;92.90
76567;DHT22;65428;53.194;6.132;2022-12-26T17:58:21;3.70;93.00
76567;DHT22;65428;53.194;6.132;2022-12-26T18:00:48;3.80;93.10
76567;DHT22;65428;53.194;6.132;2022-12-26T18:03:16;3.70;93.10
76567;DHT22;65428;53.194;6.132;2022-12-26T18:05:42;3.70;93.10
76567;DHT22;65428;53.194;6.132;2022-12-26T18:08:39;3.70;93.10
76567;DHT22;65428;53.194;6.132;2022-12-26T18:11:09;3.70;93.50
76567;DHT22;65428;53.194;6.132;2022-12-26T18:13:35;3.70;93.20
76567;DHT22;65428;53.194;6.132;2022-12-26T18:16:04;3.70;93.10
76567;DHT22;65428;53.194;6.132;2022-12-26T18:18:36;3.70;93.00
76567;DHT22;65428;53.194;6.132;2022-12-26T18:21:03;3.70;93.10
76567;DHT22;65428;53.194;6.132;2022-12-26T18:23:29;3.70;93.00
76567;DHT22;65428;53.194;6.132;2022-12-26T18:26:01;3.60;93.30
76567;DHT22;65428;53.194;6.132;2022-12-26T18:28:27;3.60;93.10
76567;DHT22;65428;53.194;6.132;2022-12-26T18:30:53;3.70;93.20
76567;DHT22;65428;53.194;6.132;2022-12-26T18:33:21;3.70;93.20
76567;DHT22;65428;53.194;6.132;2022-12-26T18:35:46;3.70;93.30
76567;DHT22;65428;53.194;6.132;2022-12-26T18:38:19;3.70;93.00
76567;DHT22;65428;53.194;6.132;2022-12-26T18:40:50;3.70;93.10
76567;DHT22;65428;53.194;6.132;2022-12-26T18:43:19;3.70;93.20
76567;DHT22;65428;53.194;6.132;2022-12-26T18:45:45;3.70;93.10
76567;DHT22;65428;53.194;6.132;2022-12-26T18:48:14;3.70;93.00
76567;DHT22;65428;53.194;6.132;2022-12-26T18:50:40;3.70;93.00
76567;DHT22;65428;53.194;6.132;2022-12-26T18:53:06;3.70;93.10
76567;DHT22;65428;53.194;6.132;2022-12-26T18:55:32;3.70;93.10
76567;DHT22;65428;53.194;6.132;2022-12-26T18:57:57;3.80;93.10
76567;DHT22;65428;53.194;6.132;2022-12-26T19:00:23;3.80;93.10
76567;DHT22;65428;53.194;6.132;2022-12-26T19:02:50;3.80;93.00
76567;DHT22;65428;53.194;6.132;2022-12-26T19:05:29;3.80;93.00
76567;DHT22;65428;53.194;6.132;2022-12-26T19:07:59;3.80;93.00
76567;DHT22;65428;53.194;6.132;2022-12-26T19:10:28;3.80;92.90
76567;DHT22;65428;53.194;6.132;2022-12-26T19:12:54;3.80;92.90
76567;DHT22;65428;53.194;6.132;2022-12-26T19:15:22;3.80;92.90
76567;DHT22;65428;53.194;6.132;2022-12-26T19:17:48;3.70;92.90
76567;DHT22;65428;53.194;6.132;2022-12-26T19:20:22;3.70;92.90
76567;DHT22;65428;53.194;6.132;2022-12-26T19:22:49;3.60;93.00
76567;DHT22;65428;53.194;6.132;2022-12-26T19:25:16;3.50;93.00
76567;DHT22;65428;53.194;6.132;2022-12-26T19:27:42;3.50;93.20
76567;DHT22;65428;53.194;6.132;2022-12-26T19:30:09;3.50;93.10
76567;DHT22;65428;53.194;6.132;2022-12-26T19:32:35;3.40;93.30
76567;DHT22;65428;53.194;6.132;2022-12-26T19:35:01;3.30;93.20
76567;DHT22;65428;53.194;6.132;2022-12-26T19:37:26;3.30;93.20
76567;DHT22;65428;53.194;6.132;2022-12-26T19:39:53;3.20;93.30